Time;durP1;ratioP1;P1;durP2;ratioP2;P2;SDS_P1;SDS_P2;PMS_P1;PMS_P2;Temp;Humidity;BMP_temperature;BMP_pressure;BME280_temperature;BME280_humidity;BME280_pressure;Samples;Min_cycle;Max_cycle;Signal;HPM_P1;HPM_P2
2023/05/02 00:00:50;;;;;;;4.82;3.53;;;9.00;99.90;;;7.84;100.00;97938.09;4986048;28;20050;-78
2023/05/02 00:03:17;;;;;;;3.30;2.72;;;9.00;99.90;;;7.32;100.00;97936.81;4983512;28;20054;-78
2023/05/02 00:05:45;;;;;;;6.63;4.35;;;8.80;99.90;;;7.95;100.00;97930.91;4986062;28;20050;-78
2023/05/02 00:08:12;;;;;;;5.75;4.20;;;8.80;99.90;;;8.07;100.00;97927.16;4968643;28;20046;-78
2023/05/02 00:10:39;;;;;;;5.22;4.15;;;8.90;99.90;;;8.41;100.00;97918.50;4989692;28;20442;-78
2023/05/02 00:13:06;;;;;;;5.85;4.35;;;;;;;8.29;100.00;97916.25;4985197;28;20842;-78
2023/05/02 00:15:33;;;;;;;4.82;3.40;;;9.30;99.90;;;7.52;100.00;97905.34;4986676;28;20051;-78
2023/05/02 00:18:05;;;;;;;6.28;4.43;;;9.10;99.90;;;8.06;100.00;97915.13;4985681;28;20050;-78
2023/05/02 00:20:32;;;;;;;6.22;3.90;;;9.00;99.90;;;7.66;100.00;97908.44;4983964;28;20586;-78
2023/05/02 00:23:02;;;;;;;4.00;3.10;;;9.00;99.90;;;7.26;100.00;97922.31;4969721;28;20043;-79
2023/05/02 00:25:29;;;;;;;5.97;4.60;;;8.80;99.90;;;7.36;100.00;97919.53;4985821;28;20050;-78
2023/05/02 00:27:56;;;;;;;5.45;4.70;;;8.70;99.90;;;7.44;100.00;97926.19;4986112;28;20155;-78
2023/05/02 00:30:23;;;;;;;6.38;4.22;;;8.60;99.90;;;7.22;100.00;97920.69;4969677;28;20050;-78
2023/05/02 00:32:53;;;;;;;6.43;4.15;;;8.40;99.90;;;6.95;100.00;97922.19;4986212;28;20043;-78
2023/05/02 00:35:20;;;;;;;7.03;4.18;;;8.20;99.90;;;6.76;100.00;97926.91;4984167;28;20055;-78
2023/05/02 00:37:47;;;;;;;4.28;3.85;;;8.00;99.90;;;6.86;100.00;97935.28;4985082;28;20184;-79
2023/05/02 00:40:14;;;;;;;5.00;3.88;;;8.10;99.90;;;6.94;100.00;97940.28;4969078;28;20065;-79
2023/05/02 00:42:44;;;;;;;4.35;3.58;;;8.10;99.90;;;7.03;100.00;97940.09;4988601;28;20137;-78
2023/05/02 00:45:11;;;;;;;6.38;4.60;;;8.10;99.90;;;6.87;100.00;97947.31;4985178;28;20164;-78
2023/05/02 00:47:38;;;;;;;5.03;4.20;;;8.10;99.90;;;6.89;100.00;97950.72;4971855;28;20046;-77
2023/05/02 00:50:06;;;;;;;8.38;4.45;;;8.10;99.90;;;6.82;100.00;97956.88;4971198;28;20042;-78
2023/05/02 00:52:33;;;;;;;4.55;3.70;;;8.10;99.90;;;6.63;100.00;97956.41;4973121;28;20055;-78
2023/05/02 00:55:02;;;;;;;5.82;4.00;;;7.90;99.90;;;6.67;100.00;97963.22;4971301;28;20057;-79
2023/05/02 00:57:30;;;;;;;4.47;3.95;;;7.90;99.90;;;6.66;100.00;97964.97;4985298;28;20051;-78
2023/05/02 00:59:57;;;;;;;5.88;4.82;;;7.80;99.90;;;6.47;100.00;97966.19;4953795;28;20437;-78
2023/05/02 01:02:46;;;;;;;4.88;3.90;;;7.80;99.90;;;6.51;100.00;97965.25;4988849;28;20585;-78
2023/05/02 01:05:24;;;;;;;6.15;4.45;;;7.70;99.90;;;6.62;100.00;97971.06;4984559;28;20558;-78
2023/05/02 01:08:03;;;;;;;5.25;4.07;;;7.80;99.90;;;6.46;100.00;97965.34;4983871;28;20058;-78
2023/05/02 01:10:59;;;;;;;6.00;4.35;;;7.70;99.90;;;6.43;100.00;97967.13;4985551;28;20047;-78
2023/05/02 01:13:32;;;;;;;9.10;4.35;;;7.70;99.90;;;6.35;100.00;97971.59;4973609;28;20050;-78
2023/05/02 01:16:02;;;;;;;5.97;4.32;;;7.60;99.90;;;6.19;100.00;97976.19;4985249;28;20051;-78
2023/05/02 01:18:34;;;;;;;5.68;5.13;;;7.50;99.90;;;6.01;100.00;97978.22;4987325;28;20055;-78
2023/05/02 01:21:07;;;;;;;6.95;5.50;;;7.50;99.90;;;6.17;100.00;97981.38;4980839;28;20050;-78
2023/05/02 01:24:19;;;;;;;5.55;4.93;;;7.40;99.90;;;5.95;100.00;97987.78;4988733;28;20047;-78
2023/05/02 01:27:04;;;;;;;6.70;4.53;;;7.40;99.90;;;5.86;100.00;97987.06;4989816;28;20053;-78
2023/05/02 01:29:36;;;;;;;5.70;4.78;;;7.30;99.90;;;6.10;100.00;97990.09;4999121;28;20054;-81
2023/05/02 01:32:08;;;;;;;6.18;4.82;;;7.30;99.90;;;6.08;100.00;98003.00;4982833;28;20056;-78
2023/05/02 01:34:39;;;;;;;6.00;4.95;;;7.30;99.90;;;5.85;100.00;97987.91;4971405;28;20603;-78
2023/05/02 01:37:11;;;;;;;7.18;5.10;;;7.20;99.90;;;5.96;100.00;98000.66;4992316;28;20038;-78
2023/05/02 01:39:40;;;;;;;6.80;5.65;;;7.10;99.90;;;5.95;100.00;97995.50;4973326;28;20054;-78
2023/05/02 01:42:07;;;;;;;7.78;6.50;;;7.10;99.90;;;5.99;100.00;97994.59;4995114;28;20054;-78
2023/05/02 01:44:35;;;;;;;6.22;5.20;;;7.10;99.90;;;5.76;100.00;98000.09;4990994;28;20512;-78
2023/05/02 01:47:05;;;;;;;9.13;7.03;;;7.10;99.90;;;5.70;100.00;98005.34;4998328;28;20423;-78
2023/05/02 01:49:35;;;;;;;8.48;6.78;;;7.10;99.90;;;5.85;100.00;98016.25;4990078;28;20078;-79
2023/05/02 01:52:06;;;;;;;9.27;8.38;;;7.10;99.90;;;5.93;100.00;98023.88;5000987;28;20137;-78
2023/05/02 01:54:36;;;;;;;8.52;7.60;;;7.10;99.90;;;5.99;100.00;98028.09;5000641;28;20050;-78
2023/05/02 01:57:06;;;;;;;7.30;6.43;;;7.20;99.90;;;5.63;100.00;98027.78;4997523;28;20061;-78
2023/05/02 01:59:35;;;;;;;12.30;11.02;;;7.00;99.90;;;5.86;100.00;98032.56;4977231;28;20046;-78
2023/05/02 02:02:05;;;;;;;21.77;19.17;;;7.00;99.90;;;6.63;100.00;98026.91;4994132;28;20047;-78
2023/05/02 02:04:36;;;;;;;19.27;16.58;;;7.30;99.90;;;6.00;100.00;98022.06;4975516;28;20141;-78
2023/05/02 02:07:07;;;;;;;14.60;10.52;;;7.30;99.90;;;5.92;100.00;98034.19;4978952;28;20062;-79
2023/05/02 02:09:35;;;;;;;7.97;7.15;;;7.20;99.90;;;5.92;100.00;98034.19;5007074;28;20100;-78
2023/05/02 02:12:10;;;;;;;16.65;13.82;;;7.10;99.90;;;5.90;100.00;98036.78;4995996;28;20050;-78
2023/05/02 02:14:47;;;;;;;12.18;10.88;;;7.20;99.90;;;6.01;100.00;98046.94;4977087;28;20130;-78
2023/05/02 02:17:22;;;;;;;14.40;12.90;;;7.10;99.90;;;6.15;100.00;98052.72;4978688;28;20058;-78
2023/05/02 02:19:54;;;;;;;11.82;10.68;;;7.20;99.90;;;5.98;100.00;98052.16;4990297;28;20054;-78
2023/05/02 02:22:25;;;;;;;23.05;19.95;;;7.20;99.90;;;6.17;100.00;98050.97;4986750;28;20050;-78
2023/05/02 02:24:53;;;;;;;12.40;10.52;;;7.20;99.90;;;5.73;100.00;98054.25;4985056;28;20061;-78
2023/05/02 02:27:20;;;;;;;14.95;13.35;;;7.10;99.90;;;5.66;100.00;98045.78;4994487;28;20061;-78
2023/05/02 02:29:48;;;;;;;12.50;11.20;;;7.00;99.90;;;5.62;100.00;98041.53;4989848;28;20046;-78
2023/05/02 02:32:15;;;;;;;13.68;10.30;;;7.00;99.90;;;5.68;100.00;98049.19;4989824;28;20430;-79
2023/05/02 02:34:42;;;;;;;19.05;12.70;;;6.90;99.90;;;5.65;100.00;98054.34;4985355;28;20062;-78
2023/05/02 02:37:18;;;;;;;11.68;9.40;;;6.90;99.90;;;5.76;100.00;98062.78;4992729;28;20061;-78
2023/05/02 02:40:18;;;;;;;11.85;10.40;;;6.90;99.90;;;5.91;100.00;98061.69;4990074;28;20059;-78
2023/05/02 02:43:19;;;;;;;14.35;11.48;;;6.90;99.90;;;5.74;100.00;98068.81;4986831;28;20070;-78
2023/05/02 02:46:05;;;;;;;13.10;9.13;;;7.00;99.90;;;5.65;100.00;98064.66;4991374;28;20495;-78
2023/05/02 02:49:07;;;;;;;11.50;9.18;;;6.90;99.90;;;5.60;100.00;98069.03;4988058;28;20050;-78
2023/05/02 02:51:48;;;;;;;15.85;13.27;;;6.90;99.90;;;5.73;100.00;98064.56;4952160;28;20054;-78
2023/05/02 02:54:35;;;;;;;19.25;17.23;;;6.80;99.90;;;5.51;100.00;98064.88;4999411;28;20069;-78
2023/05/02 02:57:19;;;;;;;11.98;10.77;;;6.80;99.90;;;5.61;100.00;98070.72;4987263;28;20514;-78
2023/05/02 03:00:18;;;;;;;13.85;11.45;;;6.80;99.90;;;5.26;100.00;98074.66;5002376;28;20058;-78
2023/05/02 03:02:48;;;;;;;13.10;11.40;;;6.60;99.90;;;5.37;100.00;98080.50;4988762;28;20046;-78
2023/05/02 03:05:16;;;;;;;14.13;9.90;;;6.60;99.90;;;5.31;100.00;98079.75;4985535;28;20129;-78
2023/05/02 03:07:43;;;;;;;12.88;11.57;;;6.50;99.90;;;5.40;100.00;98082.19;4980800;28;20051;-78
2023/05/02 03:10:11;;;;;;;11.63;10.43;;;6.50;99.90;;;5.42;100.00;98085.59;4986604;28;20077;-78
2023/05/02 03:12:40;;;;;;;16.70;14.90;;;6.50;99.90;;;5.37;100.00;98088.22;4985820;28;20066;-78
2023/05/02 03:15:18;;;;;;;18.83;13.60;;;6.60;99.90;;;5.51;100.00;98088.03;4977804;28;20073;-78
2023/05/02 03:17:45;;;;;;;15.70;14.02;;;6.60;99.90;;;5.47;100.00;98093.25;4984037;28;20072;-79
2023/05/02 03:20:12;;;;;;;14.27;12.70;;;6.60;99.90;;;5.49;100.00;98094.94;4985512;28;20097;-78
2023/05/02 03:22:40;;;;;;;15.57;13.90;;;6.60;99.90;;;5.40;100.00;98090.75;4985139;28;20072;-78
2023/05/02 03:25:08;;;;;;;12.43;10.98;;;6.60;99.90;;;5.51;100.00;98100.91;4982891;28;20101;-78
2023/05/02 03:27:35;;;;;;;15.50;12.82;;;6.50;99.90;;;5.55;100.00;98102.56;4999092;28;20050;-78
2023/05/02 03:30:03;;;;;;;18.02;15.27;;;6.50;99.90;;;5.48;100.00;98102.69;4982697;28;20053;-78
2023/05/02 03:32:30;;;;;;;13.23;11.65;;;6.50;99.90;;;5.53;100.00;98109.47;4986055;28;20150;-78
2023/05/02 03:34:58;;;;;;;16.42;13.95;;;6.50;99.90;;;5.37;100.00;98105.41;4989511;28;20100;-78
2023/05/02 03:37:25;;;;;;;17.85;16.05;;;6.60;99.90;;;5.47;100.00;98111.28;4990066;28;20057;-78
2023/05/02 03:39:53;;;;;;;15.23;12.32;;;6.60;99.90;;;5.66;100.00;98123.88;4973691;28;20055;-78
2023/05/02 03:42:20;;;;;;;13.35;11.05;;;6.70;99.90;;;5.76;100.00;98119.44;4984482;28;20618;-78
2023/05/02 03:44:52;;;;;;;12.80;11.18;;;6.80;99.90;;;5.82;100.00;98126.25;4991336;28;20069;-78
2023/05/02 03:47:20;;;;;;;15.15;10.90;;;6.90;99.90;;;5.85;100.00;98131.34;4983339;28;20062;-78
2023/05/02 03:49:48;;;;;;;11.63;10.00;;;6.90;99.90;;;5.73;100.00;98132.38;4985866;28;20047;-78
2023/05/02 03:52:15;;;;;;;12.45;10.68;;;6.90;99.90;;;5.83;100.00;98128.78;4969932;28;20053;-78
2023/05/02 03:54:42;;;;;;;16.23;14.38;;;6.90;99.90;;;5.59;100.00;98126.56;4985844;28;20058;-78
2023/05/02 03:57:11;;;;;;;11.80;10.52;;;6.80;99.90;;;5.62;100.00;98127.38;4985902;28;20053;-79
2023/05/02 03:59:40;;;;;;;12.38;10.52;;;6.80;99.90;;;5.37;100.00;98128.56;4982963;28;20054;-79
2023/05/02 04:02:08;;;;;;;12.98;11.13;;;6.70;99.90;;;5.28;100.00;98128.69;4976313;28;20055;-78
2023/05/02 04:04:35;;;;;;;15.05;13.45;;;6.60;99.90;;;5.30;100.00;98130.38;4984766;28;20393;-78
2023/05/02 04:07:04;;;;;;;15.65;13.23;;;6.60;99.90;;;5.40;100.00;98131.94;4985877;28;20042;-78
2023/05/02 04:09:31;;;;;;;12.00;10.77;;;6.50;99.90;;;5.40;100.00;98131.09;4972171;28;20169;-78
2023/05/02 04:11:58;;;;;;;14.18;10.98;;;6.60;99.90;;;5.31;100.00;98128.66;4990055;28;20043;-78
2023/05/02 04:14:25;;;;;;;15.10;13.48;;;6.60;99.90;;;5.28;100.00;98131.28;4986188;28;20038;-78
2023/05/02 04:16:52;;;;;;;13.27;11.88;;;6.60;99.90;;;5.33;100.00;98132.06;4990360;28;20046;-78
2023/05/02 04:19:19;;;;;;;12.52;11.23;;;6.50;99.90;;;5.28;100.00;98133.84;4989547;28;20114;-77
2023/05/02 04:21:47;;;;;;;14.55;12.07;;;6.60;99.90;;;5.37;100.00;98139.72;4997887;28;20109;-78
2023/05/02 04:24:14;;;;;;;18.23;14.88;;;6.60;99.90;;;5.45;100.00;98137.03;5000932;28;20046;-78
2023/05/02 04:26:41;;;;;;;16.30;13.65;;;6.60;99.90;;;5.59;100.00;98152.31;4982892;28;20588;-78
2023/05/02 04:29:09;;;;;;;20.63;17.50;;;6.70;99.90;;;5.68;100.00;98143.59;4988665;28;20066;-78
2023/05/02 04:31:37;;;;;;;24.52;20.42;;;6.70;99.90;;;5.77;100.00;98152.06;4987211;28;20050;-78
2023/05/02 04:34:06;;;;;;;18.83;16.83;;;6.80;99.90;;;5.82;100.00;98152.84;5000179;28;20073;-78
2023/05/02 04:36:34;;;;;;;22.02;18.27;;;6.90;99.90;;;5.82;100.00;98154.59;4972764;28;20050;-77
2023/05/02 04:39:02;;;;;;;24.00;17.00;;;6.90;99.90;;;5.83;100.00;98159.69;4971018;28;20510;-78
2023/05/02 04:41:29;;;;;;;19.00;15.85;;;6.90;99.90;;;5.87;100.00;98156.19;4983658;28;20063;-78
2023/05/02 04:43:57;;;;;;;16.73;14.00;;;6.90;99.90;;;5.79;100.00;98165.78;4982931;28;20058;-78
2023/05/02 04:46:24;;;;;;;12.20;10.30;;;6.90;99.90;;;5.82;100.00;98163.16;4984350;28;20046;-78
2023/05/02 04:48:51;;;;;;;15.10;11.95;;;6.90;99.90;;;6.08;100.00;98164.53;4989871;28;20057;-78
2023/05/02 04:51:18;;;;;;;18.30;13.85;;;7.00;99.90;;;6.18;100.00;98167.81;4999412;28;20049;-78
2023/05/02 04:53:45;;;;;;;16.70;14.43;;;7.00;99.90;;;6.08;100.00;98169.69;4972346;28;20046;-78
2023/05/02 04:56:13;;;;;;;15.40;13.13;;;7.10;99.90;;;6.09;100.00;98179.13;4981129;28;20126;-78
2023/05/02 04:58:40;;;;;;;22.13;18.05;;;7.10;99.90;;;6.12;100.00;98185.97;4986164;28;21058;-78
2023/05/02 05:01:08;;;;;;;23.00;18.73;;;7.20;99.90;;;6.25;100.00;98185.75;4987977;28;20082;-78
2023/05/02 05:03:35;;;;;;;19.02;16.67;;;7.20;99.90;;;6.16;100.00;98180.72;4991229;28;20697;-78
2023/05/02 05:06:03;;;;;;;50.53;40.17;;;7.20;99.90;;;6.31;100.00;98184.78;4972898;28;20054;-78
2023/05/02 05:08:31;;;;;;;45.17;36.80;;;7.30;99.90;;;6.47;100.00;98187.97;4985150;28;20116;-78
2023/05/02 05:10:58;;;;;;;53.22;41.63;;;7.30;99.90;;;6.60;100.00;98202.38;4987455;28;20050;-78
2023/05/02 05:13:25;;;;;;;24.10;20.27;;;7.50;99.90;;;6.43;100.00;98199.19;4988817;28;20047;-78
2023/05/02 05:15:53;;;;;;;40.63;32.33;;;7.50;99.90;;;6.56;100.00;98215.34;4984871;28;20066;-78
2023/05/02 05:18:20;;;;;;;34.67;30.08;;;7.50;99.90;;;6.75;100.00;98214.19;4996513;28;20078;-78
2023/05/02 05:20:47;;;;;;;37.08;30.23;;;7.60;99.90;;;7.08;100.00;98220.47;4990062;28;20046;-77
2023/05/02 05:23:14;;;;;;;34.72;29.90;;;7.70;99.90;;;7.20;100.00;98215.94;4964895;28;20603;-78
2023/05/02 05:25:42;;;;;;;37.53;30.42;;;7.90;99.90;;;7.33;100.00;98222.59;4983574;28;20248;-78
2023/05/02 05:28:11;;;;;;;27.70;22.98;;;8.10;99.90;;;7.30;100.00;98222.66;4983770;28;20349;-78
2023/05/02 05:30:39;;;;;;;21.45;18.13;;;8.20;99.90;;;7.46;100.00;98226.63;4984588;28;20051;-78
2023/05/02 05:33:07;;;;;;;23.80;20.63;;;8.10;99.90;;;7.57;100.00;98222.97;4987658;28;20501;-78
2023/05/02 05:35:35;;;;;;;24.02;17.85;;;8.10;99.90;;;7.59;100.00;98219.47;4985625;28;20046;-78
2023/05/02 05:38:02;;;;;;;18.52;16.52;;;8.20;99.90;;;7.65;100.00;98223.69;4998094;28;20138;-78
2023/05/02 05:40:29;;;;;;;22.13;19.27;;;8.30;99.90;;;7.68;100.00;98223.59;4983183;28;20051;-78
2023/05/02 05:42:57;;;;;;;18.25;15.70;;;8.40;99.90;;;8.04;100.00;98223.72;4984895;28;20063;-78
2023/05/02 05:45:23;;;;;;;22.58;17.63;;;8.50;99.90;;;8.21;100.00;98220.75;4986884;28;20146;-78
2023/05/02 05:47:54;;;;;;;22.58;17.52;;;8.70;99.90;;;8.34;100.00;98215.25;4987026;28;20479;-78
2023/05/02 05:50:22;;;;;;;18.27;16.05;;;8.80;99.90;;;8.34;100.00;98220.41;4983160;28;20076;-78
2023/05/02 05:52:49;;;;;;;17.48;14.10;;;8.80;99.90;;;8.45;100.00;98219.38;4970105;28;20141;-78
2023/05/02 05:55:16;;;;;;;14.55;11.63;;;8.80;99.90;;;8.41;100.00;98213.41;4983381;28;20046;-78
2023/05/02 05:57:44;;;;;;;16.70;13.45;;;8.70;99.90;;;8.27;100.00;98215.44;4972246;28;20051;-78
2023/05/02 06:00:12;;;;;;;16.90;12.90;;;;;;;8.35;100.00;98214.38;4987426;28;20047;-78
2023/05/02 06:02:39;;;;;;;16.70;13.27;;;8.70;99.90;;;8.35;100.00;98208.34;4989689;28;20050;-79
2023/05/02 06:05:07;;;;;;;17.73;15.65;;;8.80;99.90;;;8.40;100.00;98218.59;4986916;28;20154;-78
2023/05/02 06:07:34;;;;;;;16.55;14.43;;;8.80;99.90;;;8.70;100.00;98224.78;4985345;28;20066;-78
2023/05/02 06:10:01;;;;;;;18.95;16.17;;;8.90;99.90;;;8.90;100.00;98222.56;4998563;28;20101;-78
2023/05/02 06:12:30;;;;;;;49.85;36.95;;;9.10;99.90;;;8.96;100.00;98224.13;4989664;28;20074;-78
2023/05/02 06:14:57;;;;;;;50.95;39.08;;;9.40;99.90;;;9.30;100.00;98229.25;4992602;28;20064;-79
2023/05/02 06:17:27;;;;;;;52.17;41.17;;;9.70;99.90;;;9.56;100.00;98230.31;4985181;28;20054;-78
2023/05/02 06:19:55;;;;;;;49.88;40.75;;;10.00;99.90;;;9.76;100.00;98222.81;4983996;28;20137;-78
2023/05/02 06:22:22;;;;;;;56.47;43.72;;;10.30;99.90;;;9.93;100.00;98219.72;4984299;28;20046;-78
2023/05/02 06:24:49;;;;;;;53.88;44.28;;;10.50;99.90;;;9.93;100.00;98227.50;4987584;28;20053;-78
2023/05/02 06:27:16;;;;;;;57.17;46.15;;;10.60;99.90;;;10.08;100.00;98217.56;4990168;28;20515;-79
2023/05/02 06:29:43;;;;;;;57.05;46.38;;;10.70;99.90;;;10.39;100.00;98215.75;4992713;28;20063;-78
2023/05/02 06:32:12;;;;;;;55.78;45.05;;;10.90;99.90;;;10.34;100.00;98209.00;4990778;28;20566;-78
2023/05/02 06:34:39;;;;;;;53.15;41.83;;;11.00;99.90;;;10.53;100.00;98206.66;5001156;28;20463;-78
2023/05/02 06:37:06;;;;;;;51.67;43.53;;;11.10;99.90;;;10.74;100.00;98203.38;4987523;28;20051;-78
2023/05/02 06:39:33;;;;;;;47.67;40.50;;;11.20;99.90;;;10.81;100.00;98191.03;4971713;28;20042;-76
2023/05/02 06:42:00;;;;;;;53.33;44.00;;;11.40;99.90;;;10.92;100.00;98185.47;4977409;28;20049;-76
2023/05/02 06:44:27;;;;;;;52.58;42.85;;;11.50;99.90;;;10.94;100.00;98181.91;4985858;28;20065;-77
2023/05/02 06:46:54;;;;;;;49.20;42.05;;;11.60;99.90;;;10.87;100.00;98175.25;4982948;28;20049;-75
2023/05/02 06:49:22;;;;;;;50.28;40.53;;;11.60;99.90;;;11.04;100.00;98178.13;4982893;28;20058;-76
2023/05/02 06:51:50;;;;;;;51.65;40.42;;;11.70;99.90;;;10.92;100.00;98175.09;4989042;28;20058;-78
2023/05/02 06:54:18;;;;;;;53.60;41.22;;;11.80;99.90;;;11.12;100.00;98180.44;4989275;28;20471;-76
2023/05/02 06:56:45;;;;;;;46.92;38.65;;;11.80;99.90;;;11.28;100.00;98175.53;4983405;28;20050;-80
2023/05/02 06:59:15;;;;;;;52.08;40.90;;;12.00;99.90;;;11.17;100.00;98169.88;4977868;28;20706;-78
2023/05/02 07:01:44;;;;;;;47.15;40.55;;;12.10;99.90;;;11.21;100.00;98176.66;4990234;28;20061;-78
2023/05/02 07:04:11;;;;;;;43.28;37.38;;;12.10;99.90;;;11.41;100.00;98163.81;4989301;28;20648;-78
2023/05/02 07:06:39;;;;;;;47.90;39.53;;;12.10;99.90;;;11.55;100.00;98165.88;4958104;28;20129;-78
2023/05/02 07:09:06;;;;;;;47.15;39.25;;;12.20;99.90;;;11.44;100.00;98173.25;4989870;28;20058;-78
2023/05/02 07:11:34;;;;;;;43.03;36.15;;;12.20;99.90;;;11.31;100.00;98178.03;4991097;28;20046;-78
2023/05/02 07:14:01;;;;;;;47.47;38.45;;;12.20;99.90;;;11.42;100.00;98188.88;4990110;28;20890;-78
2023/05/02 07:16:31;;;;;;;47.90;37.50;;;12.20;99.90;;;11.71;100.00;98177.41;4992172;28;20165;-78
2023/05/02 07:18:59;;;;;;;43.78;36.80;;;12.20;99.90;;;11.83;100.00;98185.66;4990869;28;20046;-77
2023/05/02 07:21:26;;;;;;;37.03;29.75;;;12.40;99.90;;;11.85;100.00;98176.03;4983968;28;20047;-78
2023/05/02 07:23:56;;;;;;;39.72;30.67;;;12.40;99.90;;;11.73;100.00;98187.75;4969160;28;20417;-78
2023/05/02 07:26:25;;;;;;;40.40;33.63;;;12.50;99.90;;;11.92;100.00;98191.38;4993266;28;20056;-78
2023/05/02 07:28:52;;;;;;;40.20;32.47;;;;;;;11.85;100.00;98189.88;4975419;28;20056;-78
2023/05/02 07:31:20;;;;;;;36.95;31.30;;;12.80;99.90;;;12.24;100.00;98176.28;4991286;28;20046;-78
2023/05/02 07:33:47;;;;;;;39.80;31.98;;;12.90;99.90;;;12.80;100.00;98176.66;4992834;28;20042;-79
2023/05/02 07:36:14;;;;;;;37.33;32.05;;;13.10;99.90;;;12.84;100.00;98179.06;4993776;28;20047;-78
2023/05/02 07:38:41;;;;;;;42.88;33.83;;;13.40;99.90;;;12.28;100.00;98172.66;4984173;28;20046;-78
2023/05/02 07:41:09;;;;;;;40.05;34.35;;;13.30;99.90;;;12.26;100.00;98169.25;4986971;28;20046;-78
2023/05/02 07:43:36;;;;;;;44.13;35.10;;;13.20;99.90;;;11.80;100.00;98172.78;4987918;28;20073;-78
2023/05/02 07:46:05;;;;;;;37.33;31.60;;;13.10;99.90;;;11.83;100.00;98178.69;4989341;28;20042;-78
2023/05/02 07:48:35;;;;;;;38.72;33.63;;;12.90;99.90;;;11.97;100.00;98183.41;4984425;28;20050;-78
2023/05/02 07:51:09;;;;;;;40.85;32.42;;;12.90;99.90;;;12.32;100.00;98179.44;4985987;28;20215;-78
2023/05/02 07:53:37;;;;;;;40.78;32.53;;;12.90;99.90;;;12.45;100.00;98179.78;4985210;28;20128;-76
2023/05/02 07:56:06;;;;;;;37.53;29.90;;;13.00;99.90;;;12.38;100.00;98174.88;4982143;28;20050;-78
2023/05/02 07:58:35;;;;;;;34.90;29.42;;;13.20;99.90;;;12.61;100.00;98172.16;4984594;28;20062;-78
2023/05/02 08:01:03;;;;;;;37.53;29.50;;;13.10;99.90;;;12.81;100.00;98178.31;4973488;28;20526;-79
2023/05/02 08:03:30;;;;;;;35.63;28.45;;;13.30;99.90;;;12.51;100.00;98174.31;4984080;28;20058;-78
2023/05/02 08:05:57;;;;;;;35.58;29.90;;;13.50;99.90;;;12.60;100.00;98180.91;4987949;28;20058;-78
2023/05/02 08:08:25;;;;;;;36.13;29.58;;;13.30;99.90;;;13.07;100.00;98170.25;4991540;28;20149;-78
2023/05/02 08:10:52;;;;;;;31.40;27.70;;;13.40;99.90;;;13.13;100.00;98174.34;4992197;28;20054;-79
2023/05/02 08:13:20;;;;;;;35.22;29.58;;;13.60;99.90;;;13.61;100.00;98165.28;4984598;28;20061;-79
2023/05/02 08:15:48;;;;;;;34.58;27.08;;;13.80;99.90;;;13.53;100.00;98167.41;4982120;28;20118;-77
2023/05/02 08:18:15;;;;;;;29.90;25.27;;;14.10;99.90;;;14.11;100.00;98169.91;4983285;28;20487;-78
2023/05/02 08:20:42;;;;;;;32.25;26.40;;;14.30;99.90;;;14.53;100.00;98175.75;4979982;28;20049;-77
2023/05/02 08:23:09;;;;;;;31.40;26.20;;;14.50;99.90;;;13.58;100.00;98168.88;4986802;28;20055;-78
2023/05/02 08:25:36;;;;;;;32.25;26.70;;;14.60;99.90;;;13.89;100.00;98180.53;4984995;28;20054;-77
2023/05/02 08:28:04;;;;;;;33.10;25.77;;;14.50;99.90;;;14.05;100.00;98171.97;4985356;28;20052;-77
2023/05/02 08:30:31;;;;;;;32.53;25.45;;;14.50;99.90;;;13.74;100.00;98179.47;4987828;28;20495;-78
2023/05/02 08:32:58;;;;;;;28.92;24.13;;;14.70;99.90;;;13.74;100.00;98184.69;4980457;28;20061;-77
2023/05/02 08:35:27;;;;;;;32.45;26.67;;;14.70;99.90;;;13.75;100.00;98186.41;4994986;28;20051;-77
2023/05/02 08:37:55;;;;;;;32.35;26.08;;;14.40;99.90;;;13.51;100.00;98192.72;4980103;28;20070;-77
2023/05/02 08:40:25;;;;;;;31.88;24.58;;;14.40;99.90;;;13.26;100.00;98193.75;4979077;28;20679;-77
2023/05/02 08:43:07;;;;;;;29.08;23.98;;;14.20;99.90;;;13.04;100.00;98203.41;4984758;28;20077;-77
2023/05/02 08:45:38;;;;;;;30.35;23.50;;;14.20;99.90;;;13.21;100.00;98206.16;4983425;28;20587;-77
2023/05/02 08:48:11;;;;;;;31.95;24.85;;;14.20;99.90;;;13.06;100.00;98212.00;4978728;28;20042;-77
2023/05/02 08:50:47;;;;;;;29.02;22.63;;;14.10;99.90;;;12.79;100.00;98212.25;4983218;28;20074;-77
2023/05/02 08:53:14;;;;;;;25.13;20.90;;;13.90;99.90;;;13.26;100.00;98214.63;4981477;28;20055;-77
2023/05/02 08:55:42;;;;;;;28.27;22.25;;;13.90;99.90;;;13.46;100.00;98212.94;4980091;28;20174;-77
2023/05/02 08:58:11;;;;;;;28.25;21.80;;;14.00;99.90;;;13.27;100.00;98213.69;4978335;28;20055;-77
2023/05/02 09:00:45;;;;;;;29.40;20.47;;;14.10;99.90;;;13.06;100.00;98217.22;4978465;28;20139;-77
2023/05/02 09:03:30;;;;;;;27.00;19.92;;;14.00;99.90;;;13.28;100.00;98223.25;4975150;28;20365;-77
2023/05/02 09:06:19;;;;;;;25.98;20.35;;;14.00;99.90;;;13.31;100.00;98220.50;4961456;28;20057;-77
2023/05/02 09:08:49;;;;;;;24.90;19.38;;;14.00;99.90;;;13.37;100.00;98216.78;4980206;28;20077;-77
2023/05/02 09:11:17;;;;;;;22.25;18.20;;;14.10;99.90;;;13.08;100.00;98220.63;4980378;28;20135;-76
2023/05/02 09:13:46;;;;;;;25.27;19.63;;;14.20;99.90;;;13.00;100.00;98223.56;4983061;28;20072;-77
2023/05/02 09:16:24;;;;;;;25.58;19.77;;;13.90;99.90;;;12.78;100.00;98213.16;4982338;28;20050;-77
2023/05/02 09:18:57;;;;;;;25.55;19.30;;;13.80;99.90;;;13.04;100.00;98227.69;4993295;28;20054;-76
2023/05/02 09:21:35;;;;;;;26.42;19.60;;;13.80;99.90;;;13.03;100.00;98233.84;4985270;28;20114;-77
2023/05/02 09:24:17;;;;;;;25.92;20.92;;;13.70;99.90;;;13.03;100.00;98236.44;4981609;28;20073;-77
2023/05/02 09:27:03;;;;;;;26.33;19.87;;;13.80;99.90;;;13.07;100.00;98235.41;4983562;28;20069;-76
2023/05/02 09:29:36;;;;;;;27.23;20.27;;;13.80;99.90;;;13.03;100.00;98238.22;4979811;28;20050;-77
2023/05/02 09:32:05;;;;;;;26.58;20.52;;;13.70;99.90;;;12.79;100.00;98250.47;4983133;28;20146;-77
2023/05/02 09:34:33;;;;;;;26.13;19.30;;;13.60;99.90;;;12.64;100.00;98247.59;4985023;28;20053;-77
2023/05/02 09:37:02;;;;;;;27.10;18.73;;;13.40;99.90;;;12.40;100.00;98240.75;4982522;28;20049;-77
2023/05/02 09:39:30;;;;;;;24.15;19.00;;;13.40;99.90;;;12.36;100.00;98258.22;4983431;28;20057;-77
2023/05/02 09:41:58;;;;;;;22.83;18.55;;;13.30;99.90;;;12.58;100.00;98260.00;4982510;28;20057;-77
2023/05/02 09:44:36;;;;;;;26.65;19.00;;;13.30;99.90;;;12.46;100.00;98259.59;4982213;28;20077;-76
2023/05/02 09:47:03;;;;;;;26.55;20.38;;;13.30;99.90;;;12.83;100.00;98259.88;4963650;28;20105;-76
2023/05/02 09:49:45;;;;;;;27.63;20.08;;;13.40;99.90;;;12.53;100.00;98270.63;4979491;28;20055;-77
2023/05/02 09:52:15;;;;;;;25.65;19.33;;;13.50;99.90;;;12.58;100.00;98267.81;4979349;28;20530;-77
2023/05/02 09:54:45;;;;;;;25.08;19.05;;;13.50;99.90;;;12.88;100.00;98268.34;4979816;28;20054;-76
2023/05/02 09:57:12;;;;;;;26.30;20.95;;;13.60;99.90;;;13.29;100.00;98276.22;4982783;28;20051;-76
2023/05/02 09:59:40;;;;;;;27.20;20.02;;;13.70;99.90;;;13.15;100.00;98269.81;4984772;28;20050;-76
2023/05/02 10:02:10;;;;;;;30.48;20.83;;;13.80;99.90;;;13.01;100.00;98269.53;4988417;28;20042;-76
2023/05/02 10:04:38;;;;;;;26.98;20.25;;;13.90;99.90;;;12.90;100.00;98272.56;4976215;28;20509;-77
2023/05/02 10:07:09;;;;;;;25.90;19.80;;;13.80;99.90;;;12.93;100.00;98282.03;4985655;28;20109;-77
2023/05/02 10:09:42;;;;;;;28.08;19.45;;;14.00;99.90;;;13.41;100.00;98273.13;4996334;28;20047;-77
2023/05/02 10:12:14;;;;;;;25.75;19.50;;;14.00;99.90;;;12.94;100.00;98273.31;4981351;28;20524;-77
2023/05/02 10:14:49;;;;;;;25.50;19.43;;;14.00;99.90;;;13.04;100.00;98281.59;4983225;28;20510;-75
2023/05/02 10:17:27;;;;;;;24.48;19.15;;;13.90;99.90;;;13.31;100.00;98287.44;4971707;28;20422;-77
2023/05/02 10:20:03;;;;;;;22.02;18.02;;;13.80;99.90;;;13.90;100.00;98277.94;4982702;28;20058;-76
2023/05/02 10:22:32;;;;;;;25.83;18.20;;;14.00;99.90;;;13.64;100.00;98282.56;4983244;28;20051;-77